createdAt,value
2022-10-08T00:02:14.283Z,17.25
2022-10-08T00:04:44.916Z,20.00
2022-10-08T00:07:15.253Z,17.75
2022-10-08T00:09:45.896Z,20.00
2022-10-08T00:12:17.045Z,22.00
2022-10-08T00:14:48.705Z,21.75
2022-10-08T00:17:18.948Z,24.50
2022-10-08T00:19:50.003Z,25.00
2022-10-08T00:22:20.536Z,25.50
2022-10-08T00:24:51.099Z,25.00
2022-10-08T00:27:22.364Z,22.00
2022-10-08T00:29:52.967Z,23.25
2022-10-08T00:32:23.140Z,25.75
2022-10-08T00:34:53.292Z,21.75
2022-10-08T00:37:23.695Z,24.00
2022-10-08T00:39:53.985Z,24.00
2022-10-08T00:42:24.193Z,24.50
2022-10-08T00:45:00.375Z,21.50
2022-10-08T00:47:42.722Z,22.00
2022-10-08T00:50:36.526Z,17.25
2022-10-08T00:53:08.791Z,22.25
2022-10-08T00:55:43.622Z,19.75
2022-10-08T00:58:15.731Z,17.50
2022-10-08T01:00:46.293Z,19.50
2022-10-08T01:03:16.661Z,19.50
2022-10-08T01:06:12.986Z,23.00
2022-10-08T01:09:07.129Z,24.25
2022-10-08T01:11:53.032Z,23.25
2022-10-08T01:14:49.735Z,25.25
2022-10-08T01:17:26.254Z,26.50
2022-10-08T01:20:19.887Z,27.50
2022-10-08T01:22:53.022Z,25.00
2022-10-08T01:25:37.959Z,25.25
2022-10-08T01:28:29.533Z,25.50
2022-10-08T01:31:05.287Z,26.75
2022-10-08T01:33:44.373Z,25.00
2022-10-08T01:36:16.288Z,25.50
2022-10-08T01:38:49.673Z,23.00
2022-10-08T01:41:23.285Z,26.00
2022-10-08T01:43:56.555Z,25.50
2022-10-08T01:46:29.454Z,25.75
2022-10-08T01:49:05.163Z,27.25
2022-10-08T01:51:38.425Z,27.25
2022-10-08T01:54:11.906Z,27.00
2022-10-08T01:56:45.047Z,24.25
2022-10-08T01:59:36.167Z,26.00
2022-10-08T02:02:25.281Z,25.00
2022-10-08T02:04:56.578Z,26.00
2022-10-08T02:07:30.719Z,25.00
2022-10-08T02:10:16.367Z,24.25
2022-10-08T02:12:47.668Z,25.50
2022-10-08T02:15:29.636Z,26.50
2022-10-08T02:18:14.798Z,21.50
2022-10-08T02:20:59.901Z,25.75
2022-10-08T02:23:33.060Z,27.00
2022-10-08T02:26:13.015Z,29.75
2022-10-08T02:28:47.850Z,31.25
2022-10-08T02:31:26.517Z,32.25
2022-10-08T02:34:14.559Z,30.25
2022-10-08T02:36:48.388Z,27.75
2022-10-08T02:39:40.819Z,29.25
2022-10-08T02:42:14.535Z,27.25
2022-10-08T02:44:48.157Z,27.00
2022-10-08T02:47:21.353Z,25.00
2022-10-08T02:49:54.911Z,26.00
2022-10-08T02:52:28.028Z,22.25
2022-10-08T02:55:01.276Z,20.75
2022-10-08T02:57:34.617Z,17.75
2022-10-08T03:00:10.987Z,11.75
2022-10-08T03:02:54.402Z,10.50
2022-10-08T03:05:25.099Z,9.50
2022-10-08T03:07:59.065Z,13.50
2022-10-08T03:10:50.545Z,8.50
2022-10-08T03:13:23.923Z,14.25
2022-10-08T03:15:56.987Z,14.50
2022-10-08T03:18:27.666Z,13.50
2022-10-08T03:20:58.259Z,11.00
2022-10-08T03:23:29.925Z,12.00
2022-10-08T03:26:00.110Z,12.50
2022-10-08T03:28:30.465Z,15.25
2022-10-08T03:31:21.529Z,16.50
2022-10-08T03:33:53.889Z,11.00
2022-10-08T03:36:25.591Z,14.75
2022-10-08T03:38:55.799Z,16.75
2022-10-08T03:41:26.598Z,12.75
2022-10-08T03:43:58.596Z,18.75
2022-10-08T03:46:28.906Z,10.25
2022-10-08T03:48:59.352Z,13.25
2022-10-08T03:51:29.544Z,11.50
2022-10-08T03:53:59.896Z,15.00
2022-10-08T03:56:32.243Z,16.25
2022-10-08T03:59:04.128Z,15.25
2022-10-08T04:01:34.810Z,17.00
2022-10-08T04:04:05.429Z,15.75
2022-10-08T04:06:35.728Z,14.25
2022-10-08T04:09:06.577Z,12.75
2022-10-08T04:11:36.879Z,17.00
2022-10-08T04:14:08.626Z,18.25
2022-10-08T04:16:39.503Z,18.75
2022-10-08T04:19:11.972Z,22.00
2022-10-08T04:21:42.585Z,21.00
2022-10-08T04:24:13.088Z,20.25
2022-10-08T04:26:43.664Z,22.00
2022-10-08T04:29:13.995Z,23.50
2022-10-08T04:31:44.571Z,23.25
2022-10-08T04:34:14.927Z,23.00
2022-10-08T04:36:45.321Z,23.25
2022-10-08T04:39:18.902Z,21.75
2022-10-08T04:41:49.794Z,24.75
2022-10-08T04:44:20.007Z,22.75
2022-10-08T04:46:50.705Z,22.00
2022-10-08T04:49:21.964Z,20.25
2022-10-08T04:51:52.696Z,19.50
2022-10-08T04:54:25.117Z,15.25
2022-10-08T04:56:55.281Z,19.75
2022-10-08T04:59:27.070Z,18.25
2022-10-08T05:01:57.353Z,20.00
2022-10-08T05:04:28.096Z,18.25
2022-10-08T05:06:58.360Z,16.25
2022-10-08T05:09:29.916Z,16.00
2022-10-08T05:12:00.513Z,18.00
2022-10-08T05:14:30.635Z,19.00
2022-10-08T05:17:00.954Z,19.50
2022-10-08T05:19:32.708Z,22.00
2022-10-08T05:22:04.155Z,20.75
2022-10-08T05:24:34.862Z,22.00
2022-10-08T05:27:05.228Z,22.00
2022-10-08T05:29:35.646Z,21.25
2022-10-08T05:32:06.151Z,23.25
2022-10-08T05:34:36.440Z,22.50
2022-10-08T05:37:06.752Z,24.25
2022-10-08T05:39:37.358Z,24.50
2022-10-08T05:42:07.660Z,25.25
2022-10-08T05:44:42.399Z,25.00
2022-10-08T05:47:11.901Z,23.75
2022-10-08T05:49:42.290Z,27.25
2022-10-08T05:52:12.774Z,23.00
2022-10-08T05:54:43.279Z,21.75
2022-10-08T05:57:16.825Z,25.50
2022-10-08T05:59:47.456Z,28.25
2022-10-08T06:02:18.428Z,24.00
2022-10-08T06:04:50.800Z,28.50
2022-10-08T06:07:21.370Z,27.25
2022-10-08T06:09:51.608Z,26.75
2022-10-08T06:12:22.001Z,22.75
2022-10-08T06:14:52.945Z,24.25
2022-10-08T06:17:24.403Z,26.00
2022-10-08T06:19:55.819Z,22.00
2022-10-08T06:22:29.452Z,21.75
2022-10-08T06:25:03.344Z,20.60
2022-10-08T06:27:37.524Z,20.80
2022-10-08T06:30:14.580Z,17.40
2022-10-08T06:32:47.041Z,22.80
2022-10-08T06:38:27.227Z,24.20
2022-10-08T06:40:59.098Z,23.20
2022-10-08T06:43:35.390Z,24.20
2022-10-08T06:46:07.531Z,22.80
2022-10-08T06:48:41.517Z,23.80
2022-10-08T06:51:14.674Z,24.80
2022-10-08T06:53:47.940Z,22.60
2022-10-08T06:56:18.510Z,22.00
2022-10-08T06:58:49.532Z,20.60
2022-10-08T07:01:29.035Z,17.40
2022-10-08T07:03:59.032Z,18.00
2022-10-08T07:06:31.550Z,18.80
2022-10-08T07:09:05.331Z,18.80
2022-10-08T07:11:36.718Z,19.40
2022-10-08T07:14:08.401Z,18.00
2022-10-08T07:16:39.114Z,19.60
2022-10-08T07:19:15.126Z,18.80
2022-10-08T07:21:45.883Z,17.20
2022-10-08T07:24:18.043Z,19.00
2022-10-08T07:26:51.397Z,13.60
2022-10-08T07:29:23.472Z,19.00
2022-10-08T07:31:57.558Z,11.20
2022-10-08T07:34:31.019Z,16.00
2022-10-08T07:37:02.070Z,15.40
2022-10-08T07:39:33.182Z,15.40
2022-10-08T07:42:03.942Z,13.40
2022-10-08T07:44:35.715Z,11.40
2022-10-08T07:47:07.576Z,11.00
2022-10-08T07:49:38.180Z,11.80
2022-10-08T07:52:09.012Z,12.80
2022-10-08T07:54:43.146Z,11.00
2022-10-08T07:57:13.654Z,9.20
2022-10-08T07:59:50.981Z,9.00
2022-10-08T08:02:27.673Z,8.00
2022-10-08T08:04:55.213Z,10.00
2022-10-08T08:07:25.689Z,9.60
2022-10-08T08:09:56.619Z,10.40
2022-10-08T08:12:26.936Z,7.00
2022-10-08T08:14:57.336Z,8.40
2022-10-08T08:17:27.559Z,9.40
2022-10-08T08:19:58.357Z,9.60
2022-10-08T08:22:30.075Z,9.00
2022-10-08T08:25:01.597Z,6.80
2022-10-08T08:27:34.840Z,8.80
2022-10-08T08:30:08.001Z,8.00
2022-10-08T08:32:39.793Z,6.00
2022-10-08T08:35:10.115Z,9.40
2022-10-08T08:37:40.349Z,7.80
2022-10-08T08:40:12.439Z,9.00
2022-10-08T08:42:51.837Z,8.80
2022-10-08T08:45:45.836Z,10.00
2022-10-08T08:48:06.595Z,8.40
2022-10-08T08:50:39.862Z,10.40
2022-10-08T08:53:12.176Z,8.20
2022-10-08T08:55:45.283Z,11.00
2022-10-08T08:58:38.994Z,10.80
2022-10-08T09:01:12.503Z,10.00
2022-10-08T09:03:56.463Z,10.60
2022-10-08T09:06:29.005Z,11.00
2022-10-08T09:09:06.335Z,9.20
2022-10-08T09:11:39.539Z,11.20
2022-10-08T09:14:21.391Z,8.00
2022-10-08T09:16:55.182Z,11.60
2022-10-08T09:19:25.679Z,11.20
2022-10-08T09:21:56.708Z,7.60
2022-10-08T09:24:27.595Z,11.00
2022-10-08T09:26:58.225Z,10.00
2022-10-08T09:29:34.216Z,9.40
2022-10-08T09:32:08.889Z,9.60
2022-10-08T09:34:39.628Z,11.40
2022-10-08T09:37:21.850Z,9.40
2022-10-08T09:40:16.421Z,11.00
2022-10-08T09:43:06.363Z,9.40
2022-10-08T09:45:47.954Z,9.40
2022-10-08T09:48:26.897Z,9.40
2022-10-08T09:51:06.780Z,11.60
2022-10-08T09:53:49.753Z,11.00
2022-10-08T09:56:26.431Z,13.00
2022-10-08T09:59:05.845Z,11.00
2022-10-08T10:01:42.545Z,11.00
2022-10-08T10:04:32.563Z,8.20
2022-10-08T10:07:04.913Z,8.60
2022-10-08T10:09:40.430Z,9.00
2022-10-08T10:12:14.471Z,8.40
2022-10-08T10:14:47.743Z,8.40
2022-10-08T10:17:21.627Z,11.40
2022-10-08T10:20:01.149Z,10.00
2022-10-08T10:23:03.474Z,10.20
2022-10-08T10:25:48.813Z,8.00
2022-10-08T10:28:40.713Z,8.80
2022-10-08T10:31:37.023Z,8.00
2022-10-08T10:34:22.567Z,12.20
2022-10-08T10:36:59.935Z,9.40
2022-10-08T10:39:54.677Z,9.40
2022-10-08T10:42:42.593Z,9.80
2022-10-08T10:45:19.554Z,10.00
2022-10-08T10:47:51.760Z,9.00
2022-10-08T10:50:27.614Z,10.00
2022-10-08T10:53:31.719Z,9.60
2022-10-08T10:56:20.346Z,10.80
2022-10-08T10:59:16.710Z,10.80
2022-10-08T11:02:05.209Z,10.00
2022-10-08T11:05:00.738Z,8.20
2022-10-08T11:07:59.767Z,9.60
2022-10-08T11:10:42.216Z,13.60
2022-10-08T11:13:54.043Z,8.80
2022-10-08T11:16:30.075Z,7.20
2022-10-08T11:19:03.580Z,7.20
2022-10-08T11:21:41.630Z,9.20
2022-10-08T11:24:44.678Z,9.20
2022-10-08T11:27:24.781Z,9.20
2022-10-08T11:30:10.147Z,11.20
2022-10-08T11:32:44.258Z,10.00
2022-10-08T11:35:24.531Z,11.40
2022-10-08T11:38:14.904Z,9.80
2022-10-08T11:40:57.712Z,9.40
2022-10-08T11:43:43.026Z,7.40
2022-10-08T11:46:27.801Z,7.60
2022-10-08T11:49:23.454Z,9.40
2022-10-08T11:52:05.018Z,13.00
2022-10-08T11:54:39.308Z,12.80
2022-10-08T11:57:15.646Z,14.20
2022-10-08T12:00:07.711Z,11.60
2022-10-08T12:02:41.230Z,11.20
2022-10-08T12:05:23.288Z,10.80
2022-10-08T12:07:57.172Z,12.60
2022-10-08T12:10:30.473Z,10.80
2022-10-08T12:13:04.271Z,7.60
2022-10-08T12:15:38.555Z,11.20
2022-10-08T12:18:23.748Z,13.60
2022-10-08T12:21:17.691Z,17.80
2022-10-08T12:23:48.868Z,11.40
2022-10-08T12:26:21.520Z,13.60
2022-10-08T12:28:52.280Z,9.80
2022-10-08T12:31:36.471Z,9.80
2022-10-08T12:34:25.416Z,8.40
2022-10-08T12:50:29.723Z,8.80
2022-10-08T12:53:07.282Z,8.40
2022-10-08T12:55:44.351Z,9.80
2022-10-08T12:58:20.546Z,8.80
2022-10-08T13:01:03.034Z,8.60
2022-10-08T13:03:33.639Z,8.20
2022-10-08T13:06:19.381Z,9.40
2022-10-08T13:08:50.596Z,7.40
2022-10-08T13:11:25.373Z,7.80
2022-10-08T13:13:57.706Z,8.40
2022-10-08T13:16:32.697Z,10.20
2022-10-08T13:19:06.665Z,11.00
2022-10-08T13:21:40.528Z,10.00
2022-10-08T13:24:21.649Z,7.40
2022-10-08T13:26:55.847Z,14.00
2022-10-08T13:29:29.228Z,11.40
2022-10-08T13:32:18.997Z,10.40
2022-10-08T13:35:00.974Z,14.40
2022-10-08T13:37:43.746Z,15.40
2022-10-08T13:40:15.814Z,11.80
2022-10-08T13:42:52.497Z,10.00
2022-10-08T13:45:25.915Z,11.20
2022-10-08T13:47:59.860Z,10.40
2022-10-08T13:50:30.884Z,8.00
2022-10-08T13:53:02.429Z,9.00
2022-10-08T13:55:44.791Z,8.40
2022-10-08T13:58:20.388Z,7.00
2022-10-08T14:00:51.499Z,5.60
2022-10-08T14:03:22.443Z,7.20
2022-10-08T14:06:04.562Z,11.40
2022-10-08T14:08:36.056Z,15.00
2022-10-08T14:11:08.678Z,18.40
2022-10-08T14:13:41.575Z,19.00
2022-10-08T14:16:15.582Z,18.00
2022-10-08T14:18:46.652Z,14.60
2022-10-08T14:21:17.831Z,18.80
2022-10-08T14:23:49.010Z,19.60
2022-10-08T14:26:20.068Z,18.80
2022-10-08T14:28:52.189Z,1.00
2022-10-08T14:31:28.018Z,18.80
2022-10-08T14:33:56.218Z,19.20
2022-10-08T14:36:58.685Z,17.60
2022-10-08T14:39:53.801Z,26.75
2022-10-08T14:42:23.944Z,25.75
2022-10-08T14:44:56.069Z,23.00
2022-10-08T14:47:29.041Z,22.00
2022-10-08T14:50:00.669Z,33.50
2022-10-08T14:52:31.412Z,28.00
2022-10-08T14:55:02.613Z,51.00
2022-10-08T14:57:33.174Z,14.50
2022-10-08T15:00:04.488Z,32.00
2022-10-08T15:02:37.886Z,31.00
2022-10-08T15:05:08.704Z,29.00
2022-10-08T15:07:39.786Z,27.00
2022-10-08T15:10:14.801Z,9.50
2022-10-08T15:13:03.253Z,19.00
2022-10-08T15:16:02.205Z,22.00
2022-10-08T15:18:34.844Z,20.00
2022-10-08T15:41:39.434Z,12.40
2022-10-08T15:44:35.086Z,10.00
2022-10-08T15:47:12.331Z,13.60
2022-10-08T15:55:38.840Z,27.75
2022-10-08T15:58:10.118Z,24.25
2022-10-08T16:01:12.460Z,22.00
2022-10-08T16:03:48.505Z,22.50
2022-10-08T16:06:22.353Z,20.75
2022-10-08T16:09:15.420Z,18.25
2022-10-08T16:11:55.047Z,6.00
2022-10-08T16:14:27.683Z,16.25
2022-10-08T16:16:58.736Z,14.75
2022-10-08T16:19:34.949Z,14.25
2022-10-08T16:22:04.061Z,19.25
2022-10-08T16:24:35.894Z,28.50
2022-10-08T16:27:08.439Z,27.50
2022-10-08T16:29:42.251Z,27.00
2022-10-08T16:32:20.921Z,24.25
2022-10-08T16:34:53.421Z,25.00
2022-10-08T16:37:23.279Z,21.00
2022-10-08T16:39:53.908Z,24.00
2022-10-08T16:42:24.587Z,23.25
2022-10-08T16:45:00.547Z,24.25
2022-10-08T16:47:37.630Z,26.25
2022-10-08T16:50:14.833Z,25.00
2022-10-08T16:52:47.984Z,22.00
2022-10-08T16:55:19.366Z,20.25
2022-10-08T16:57:53.103Z,21.75
2022-10-08T17:01:49.193Z,20.00
2022-10-08T17:03:42.937Z,25.00
2022-10-08T17:06:24.555Z,25.00
2022-10-08T17:08:58.225Z,24.00
2022-10-08T17:11:42.375Z,26.25
2022-10-08T17:14:19.791Z,22.50
2022-10-08T17:16:50.958Z,25.75
2022-10-08T17:19:21.495Z,24.00
2022-10-08T17:21:54.005Z,24.25
2022-10-08T17:24:27.553Z,26.75
2022-10-08T17:27:00.673Z,25.50
2022-10-08T17:29:37.270Z,27.00
2022-10-08T17:32:06.303Z,24.25
2022-10-08T17:34:41.296Z,25.25
2022-10-08T17:40:15.958Z,19.50
2022-10-08T17:42:46.996Z,19.25
2022-10-08T17:45:18.642Z,15.00
2022-10-08T17:47:49.569Z,19.25
2022-10-08T17:50:20.136Z,20.00
2022-10-08T17:52:53.120Z,18.25
2022-10-08T17:55:24.572Z,20.75
2022-10-08T17:57:55.180Z,19.75
2022-10-08T18:00:26.912Z,30.25
2022-10-08T18:02:57.839Z,28.50
2022-10-08T18:08:38.680Z,25.75
2022-10-08T18:11:14.040Z,29.00
2022-10-08T18:13:46.801Z,27.00
2022-10-08T18:16:19.624Z,27.50
2022-10-08T18:18:50.717Z,27.00
2022-10-08T18:21:26.018Z,27.00
2022-10-08T18:23:59.352Z,26.75
2022-10-08T18:26:34.439Z,28.25
2022-10-08T18:29:11.412Z,26.25
2022-10-08T18:31:47.166Z,26.75
2022-10-08T18:34:20.634Z,22.25
2022-10-08T18:36:52.834Z,24.00
2022-10-08T18:39:28.687Z,26.50
2022-10-08T18:42:04.494Z,26.75
2022-10-08T18:44:35.141Z,28.75
2022-10-08T18:47:11.943Z,26.75
2022-10-08T18:49:50.311Z,26.50
2022-10-08T18:52:21.768Z,25.50
2022-10-08T18:54:54.895Z,27.75
2022-10-08T18:57:25.758Z,25.00
2022-10-08T18:59:56.274Z,27.25
2022-10-08T19:02:29.718Z,26.25
2022-10-08T19:05:00.727Z,25.50
2022-10-08T19:07:32.881Z,26.75
2022-10-08T19:10:03.765Z,26.25
2022-10-08T19:12:35.654Z,28.00
2022-10-08T19:15:08.503Z,27.00
2022-10-08T19:17:39.274Z,27.50
2022-10-08T19:20:10.544Z,28.00
2022-10-08T19:22:41.723Z,29.00
2022-10-08T19:25:12.217Z,29.50
2022-10-08T19:27:48.828Z,27.75
2022-10-08T19:30:25.252Z,28.50
2022-10-08T19:32:58.640Z,29.00
2022-10-08T19:35:32.913Z,29.75
2022-10-08T19:38:06.885Z,30.75
2022-10-08T19:40:43.169Z,31.50
2022-10-08T19:43:14.522Z,32.25
2022-10-08T19:45:45.681Z,33.00
2022-10-08T19:48:16.220Z,33.00
2022-10-08T19:50:47.017Z,28.50
2022-10-08T19:53:17.702Z,29.75
2022-10-08T19:55:50.691Z,29.00
2022-10-08T19:58:23.485Z,24.50
2022-10-08T20:01:02.853Z,23.00
2022-10-08T20:03:34.244Z,22.25
2022-10-08T20:06:07.950Z,22.25
2022-10-08T20:08:40.265Z,21.25
2022-10-08T20:11:13.629Z,21.00
2022-10-08T20:13:46.517Z,19.75
2022-10-08T20:16:26.623Z,21.00
2022-10-08T20:19:04.429Z,21.00
2022-10-08T20:21:37.990Z,21.00
2022-10-08T20:24:08.788Z,21.00
2022-10-08T20:26:41.270Z,21.00
2022-10-08T20:29:16.267Z,19.00
2022-10-08T20:31:50.005Z,21.50
2022-10-08T20:34:23.949Z,22.75
2022-10-08T20:36:54.662Z,22.00
2022-10-08T20:39:25.220Z,23.75
2022-10-08T20:41:56.843Z,22.00
2022-10-08T20:44:27.133Z,21.00
2022-10-08T20:46:57.735Z,20.75
2022-10-08T20:49:29.828Z,23.00
2022-10-08T20:52:00.156Z,18.75
2022-10-08T20:54:31.515Z,20.00
2022-10-08T20:57:02.421Z,20.25
2022-10-08T20:59:33.236Z,18.25
2022-10-08T21:02:03.986Z,19.00
2022-10-08T21:04:34.440Z,19.75
2022-10-08T21:07:04.908Z,15.00
2022-10-08T21:09:35.838Z,21.00
2022-10-08T21:12:06.809Z,21.00
2022-10-08T21:14:37.374Z,20.50
2022-10-08T21:17:10.139Z,19.50
2022-10-08T21:19:42.574Z,21.00
2022-10-08T21:22:12.915Z,20.00
2022-10-08T21:24:43.297Z,21.00
2022-10-08T21:30:24.098Z,17.25
2022-10-08T21:32:54.436Z,19.25
2022-10-08T21:35:28.195Z,18.00
2022-10-08T21:37:59.150Z,20.50
2022-10-08T21:40:29.403Z,21.50
2022-10-08T21:42:59.737Z,21.00
2022-10-08T21:45:31.532Z,22.25
2022-10-08T21:48:01.778Z,21.00
2022-10-08T21:50:36.324Z,21.00
2022-10-08T21:53:07.655Z,20.25
2022-10-08T21:55:38.133Z,17.75
2022-10-08T21:58:08.896Z,16.25
2022-10-08T22:00:39.420Z,21.00
2022-10-08T22:03:09.923Z,21.00
2022-10-08T22:05:40.255Z,21.50
2022-10-08T22:08:10.612Z,20.25
2022-10-08T22:10:41.529Z,21.00
2022-10-08T22:13:12.416Z,23.00
2022-10-08T22:15:54.434Z,25.25
2022-10-08T22:18:27.424Z,23.75
2022-10-08T22:20:59.267Z,26.75
2022-10-08T22:23:29.974Z,31.75
2022-10-08T22:26:04.137Z,29.00
2022-10-08T22:28:35.291Z,33.25
2022-10-08T22:31:10.636Z,30.00
2022-10-08T22:33:41.452Z,29.75
2022-10-08T22:36:15.279Z,30.25
2022-10-08T22:38:48.081Z,31.00
2022-10-08T22:41:21.187Z,28.00
2022-10-08T22:43:53.306Z,30.00
2022-10-08T22:46:26.312Z,31.75
2022-10-08T22:49:02.252Z,30.00
2022-10-08T22:51:32.768Z,30.75
2022-10-08T22:54:03.755Z,32.50
2022-10-08T22:56:34.283Z,31.00
2022-10-08T22:59:04.971Z,30.75
2022-10-08T23:01:35.446Z,30.50
2022-10-08T23:04:05.845Z,30.25
2022-10-08T23:06:36.659Z,32.00
2022-10-08T23:09:09.588Z,33.25
2022-10-08T23:11:40.003Z,33.50
2022-10-08T23:14:10.938Z,34.00
2022-10-08T23:16:41.261Z,34.00
2022-10-08T23:19:22.824Z,35.00
2022-10-08T23:21:53.177Z,33.00
2022-10-08T23:24:23.417Z,32.25
2022-10-08T23:26:53.575Z,34.25
2022-10-08T23:29:23.900Z,32.00
2022-10-08T23:31:54.266Z,30.00
2022-10-08T23:34:24.647Z,30.50
2022-10-08T23:36:54.977Z,31.00
2022-10-08T23:39:25.623Z,30.00
2022-10-08T23:41:55.835Z,26.75
2022-10-08T23:44:26.090Z,26.50
2022-10-08T23:46:56.542Z,25.00
2022-10-08T23:49:26.930Z,25.00
2022-10-08T23:51:57.159Z,23.00
2022-10-08T23:54:27.619Z,23.75
2022-10-08T23:56:57.903Z,25.00
2022-10-08T23:59:28.229Z,24.00
